sensor_id;sensor_type;location;lat;lon;timestamp;P1;durP1;ratioP1;P2;durP2;ratioP2
48791;SDS011;34587;48.816;9.420;2022-11-15T00:02:04;1.55;;;1.38;;
48791;SDS011;34587;48.816;9.420;2022-11-15T00:04:29;1.35;;;1.20;;
48791;SDS011;34587;48.816;9.420;2022-11-15T00:06:55;0.98;;;0.98;;
48791;SDS011;34587;48.816;9.420;2022-11-15T00:09:20;1.30;;;1.20;;
48791;SDS011;34587;48.816;9.420;2022-11-15T00:11:45;4.07;;;0.70;;
48791;SDS011;34587;48.816;9.420;2022-11-15T00:14:10;0.40;;;0.40;;
48791;SDS011;34587;48.816;9.420;2022-11-15T00:16:36;0.70;;;0.70;;
48791;SDS011;34587;48.816;9.420;2022-11-15T00:19:01;1.27;;;1.17;;
48791;SDS011;34587;48.816;9.420;2022-11-15T00:21:27;0.93;;;0.93;;
48791;SDS011;34587;48.816;9.420;2022-11-15T00:23:52;2.63;;;1.60;;
48791;SDS011;34587;48.816;9.420;2022-11-15T00:26:18;0.95;;;0.95;;
48791;SDS011;34587;48.816;9.420;2022-11-15T00:28:43;0.93;;;0.68;;
48791;SDS011;34587;48.816;9.420;2022-11-15T00:31:09;1.50;;;1.42;;
48791;SDS011;34587;48.816;9.420;2022-11-15T00:33:37;1.60;;;1.33;;
48791;SDS011;34587;48.816;9.420;2022-11-15T00:36:03;1.38;;;0.80;;
48791;SDS011;34587;48.816;9.420;2022-11-15T00:38:34;0.90;;;0.90;;
48791;SDS011;34587;48.816;9.420;2022-11-15T00:41:01;1.20;;;0.82;;
48791;SDS011;34587;48.816;9.420;2022-11-15T00:43:27;2.15;;;1.05;;
48791;SDS011;34587;48.816;9.420;2022-11-15T00:45:52;1.15;;;1.13;;
48791;SDS011;34587;48.816;9.420;2022-11-15T00:48:17;1.33;;;1.10;;
48791;SDS011;34587;48.816;9.420;2022-11-15T00:50:43;0.70;;;0.70;;
48791;SDS011;34587;48.816;9.420;2022-11-15T00:53:08;0.75;;;0.75;;
48791;SDS011;34587;48.816;9.420;2022-11-15T00:55:33;0.93;;;0.88;;
48791;SDS011;34587;48.816;9.420;2022-11-15T00:57:59;0.85;;;0.85;;
48791;SDS011;34587;48.816;9.420;2022-11-15T05:16:58;1.02;;;0.70;;
48791;SDS011;34587;48.816;9.420;2022-11-15T05:19:25;1.30;;;0.63;;
48791;SDS011;34587;48.816;9.420;2022-11-15T05:21:50;1.02;;;0.88;;
48791;SDS011;34587;48.816;9.420;2022-11-15T05:24:15;0.68;;;0.68;;
48791;SDS011;34587;48.816;9.420;2022-11-15T05:26:41;0.50;;;0.50;;
48791;SDS011;34587;48.816;9.420;2022-11-15T05:29:08;0.52;;;0.50;;
48791;SDS011;34587;48.816;9.420;2022-11-15T05:31:34;2.45;;;1.15;;
48791;SDS011;34587;48.816;9.420;2022-11-15T05:34:05;1.00;;;0.90;;
48791;SDS011;34587;48.816;9.420;2022-11-15T05:38:58;0.40;;;0.40;;
48791;SDS011;34587;48.816;9.420;2022-11-15T05:41:25;0.50;;;0.50;;
48791;SDS011;34587;48.816;9.420;2022-11-15T05:43:54;0.70;;;0.70;;
48791;SDS011;34587;48.816;9.420;2022-11-15T05:46:20;1.25;;;0.80;;
48791;SDS011;34587;48.816;9.420;2022-11-15T05:48:46;0.95;;;0.75;;
48791;SDS011;34587;48.816;9.420;2022-11-15T05:51:14;0.77;;;0.70;;
48791;SDS011;34587;48.816;9.420;2022-11-15T05:53:42;0.85;;;0.85;;
48791;SDS011;34587;48.816;9.420;2022-11-15T05:56:08;0.50;;;0.47;;
48791;SDS011;34587;48.816;9.420;2022-11-15T05:58:34;0.57;;;0.55;;
48791;SDS011;34587;48.816;9.420;2022-11-15T06:00:59;0.50;;;0.50;;
48791;SDS011;34587;48.816;9.420;2022-11-15T06:03:25;0.73;;;0.50;;
48791;SDS011;34587;48.816;9.420;2022-11-15T06:05:50;3.60;;;0.95;;
48791;SDS011;34587;48.816;9.420;2022-11-15T06:08:15;1.00;;;0.60;;
48791;SDS011;34587;48.816;9.420;2022-11-15T06:10:41;0.65;;;0.65;;
48791;SDS011;34587;48.816;9.420;2022-11-15T06:13:06;3.92;;;0.77;;
48791;SDS011;34587;48.816;9.420;2022-11-15T06:15:32;0.73;;;0.73;;
48791;SDS011;34587;48.816;9.420;2022-11-15T06:17:59;1.00;;;0.65;;
48791;SDS011;34587;48.816;9.420;2022-11-15T06:20:25;0.93;;;0.73;;
48791;SDS011;34587;48.816;9.420;2022-11-15T06:23:02;0.65;;;0.43;;
48791;SDS011;34587;48.816;9.420;2022-11-15T06:25:29;0.82;;;0.82;;
48791;SDS011;34587;48.816;9.420;2022-11-15T06:27:56;0.70;;;0.70;;
48791;SDS011;34587;48.816;9.420;2022-11-15T06:30:23;0.82;;;0.82;;
48791;SDS011;34587;48.816;9.420;2022-11-15T06:32:49;1.65;;;1.13;;
48791;SDS011;34587;48.816;9.420;2022-11-15T06:35:15;0.63;;;0.63;;
48791;SDS011;34587;48.816;9.420;2022-11-15T06:37:41;0.45;;;0.45;;
48791;SDS011;34587;48.816;9.420;2022-11-15T06:40:07;0.47;;;0.47;;
48791;SDS011;34587;48.816;9.420;2022-11-15T06:42:34;0.50;;;0.50;;
48791;SDS011;34587;48.816;9.420;2022-11-15T06:44:59;0.65;;;0.65;;
48791;SDS011;34587;48.816;9.420;2022-11-15T06:47:24;1.52;;;1.17;;
48791;SDS011;34587;48.816;9.420;2022-11-15T06:49:50;0.40;;;0.40;;
48791;SDS011;34587;48.816;9.420;2022-11-15T06:52:15;0.75;;;0.75;;
48791;SDS011;34587;48.816;9.420;2022-11-15T06:54:43;0.70;;;0.70;;
48791;SDS011;34587;48.816;9.420;2022-11-15T06:57:08;0.38;;;0.38;;
48791;SDS011;34587;48.816;9.420;2022-11-15T06:59:34;1.60;;;0.93;;
48791;SDS011;34587;48.816;9.420;2022-11-15T07:01:59;0.75;;;0.68;;
48791;SDS011;34587;48.816;9.420;2022-11-15T07:04:24;0.60;;;0.60;;
48791;SDS011;34587;48.816;9.420;2022-11-15T07:06:49;0.82;;;0.82;;
48791;SDS011;34587;48.816;9.420;2022-11-15T07:09:15;0.52;;;0.52;;
48791;SDS011;34587;48.816;9.420;2022-11-15T07:11:40;0.55;;;0.55;;
48791;SDS011;34587;48.816;9.420;2022-11-15T07:14:05;1.48;;;0.82;;
48791;SDS011;34587;48.816;9.420;2022-11-15T07:16:30;0.98;;;0.98;;
48791;SDS011;34587;48.816;9.420;2022-11-15T07:18:56;0.30;;;0.30;;
48791;SDS011;34587;48.816;9.420;2022-11-15T07:21:21;0.77;;;0.70;;
48791;SDS011;34587;48.816;9.420;2022-11-15T07:23:46;0.43;;;0.43;;
48791;SDS011;34587;48.816;9.420;2022-11-15T07:26:12;0.60;;;0.60;;
48791;SDS011;34587;48.816;9.420;2022-11-15T07:28:37;1.05;;;1.00;;
48791;SDS011;34587;48.816;9.420;2022-11-15T07:31:06;0.40;;;0.40;;
48791;SDS011;34587;48.816;9.420;2022-11-15T07:33:33;0.70;;;0.70;;
48791;SDS011;34587;48.816;9.420;2022-11-15T07:36:02;0.52;;;0.52;;
48791;SDS011;34587;48.816;9.420;2022-11-15T07:38:29;0.47;;;0.47;;
48791;SDS011;34587;48.816;9.420;2022-11-15T07:40:56;0.70;;;0.70;;
48791;SDS011;34587;48.816;9.420;2022-11-15T07:43:26;2.20;;;0.80;;
48791;SDS011;34587;48.816;9.420;2022-11-15T07:45:54;0.47;;;0.47;;
48791;SDS011;34587;48.816;9.420;2022-11-15T07:48:20;0.57;;;0.57;;
48791;SDS011;34587;48.816;9.420;2022-11-15T07:50:46;1.17;;;1.17;;
48791;SDS011;34587;48.816;9.420;2022-11-15T07:53:11;0.85;;;0.65;;
48791;SDS011;34587;48.816;9.420;2022-11-15T07:55:36;0.60;;;0.60;;
48791;SDS011;34587;48.816;9.420;2022-11-15T07:58:03;0.52;;;0.52;;
48791;SDS011;34587;48.816;9.420;2022-11-15T08:00:30;1.45;;;0.80;;
48791;SDS011;34587;48.816;9.420;2022-11-15T08:03:05;1.17;;;1.05;;
48791;SDS011;34587;48.816;9.420;2022-11-15T08:05:32;0.82;;;0.82;;
48791;SDS011;34587;48.816;9.420;2022-11-15T08:07:58;1.20;;;0.68;;
48791;SDS011;34587;48.816;9.420;2022-11-15T08:10:25;0.60;;;0.60;;
48791;SDS011;34587;48.816;9.420;2022-11-15T08:13:00;0.40;;;0.40;;
48791;SDS011;34587;48.816;9.420;2022-11-15T08:15:27;1.08;;;1.08;;
48791;SDS011;34587;48.816;9.420;2022-11-15T08:17:53;1.35;;;0.85;;
48791;SDS011;34587;48.816;9.420;2022-11-15T08:20:22;1.13;;;1.10;;
48791;SDS011;34587;48.816;9.420;2022-11-15T08:22:48;0.82;;;0.82;;
48791;SDS011;34587;48.816;9.420;2022-11-15T08:25:13;0.38;;;0.38;;
48791;SDS011;34587;48.816;9.420;2022-11-15T08:27:39;3.10;;;0.50;;
48791;SDS011;34587;48.816;9.420;2022-11-15T08:30:04;2.38;;;0.88;;
48791;SDS011;34587;48.816;9.420;2022-11-15T08:32:30;0.63;;;0.60;;
48791;SDS011;34587;48.816;9.420;2022-11-15T08:34:56;0.93;;;0.60;;
48791;SDS011;34587;48.816;9.420;2022-11-15T08:37:21;0.73;;;0.73;;
48791;SDS011;34587;48.816;9.420;2022-11-15T08:39:46;0.77;;;0.77;;
48791;SDS011;34587;48.816;9.420;2022-11-15T08:42:12;1.85;;;0.77;;
48791;SDS011;34587;48.816;9.420;2022-11-15T08:44:38;2.95;;;0.75;;
48791;SDS011;34587;48.816;9.420;2022-11-15T08:47:03;1.45;;;0.80;;
48791;SDS011;34587;48.816;9.420;2022-11-15T08:49:28;1.40;;;0.98;;
48791;SDS011;34587;48.816;9.420;2022-11-15T08:51:54;0.32;;;0.32;;
48791;SDS011;34587;48.816;9.420;2022-11-15T08:54:19;1.42;;;1.33;;
48791;SDS011;34587;48.816;9.420;2022-11-15T08:56:44;1.02;;;0.80;;
48791;SDS011;34587;48.816;9.420;2022-11-15T08:59:09;0.50;;;0.50;;
48791;SDS011;34587;48.816;9.420;2022-11-15T09:01:35;0.65;;;0.65;;
48791;SDS011;34587;48.816;9.420;2022-11-15T09:04:00;1.65;;;1.30;;
48791;SDS011;34587;48.816;9.420;2022-11-15T09:06:25;1.20;;;1.10;;
48791;SDS011;34587;48.816;9.420;2022-11-15T09:08:51;0.80;;;0.80;;
48791;SDS011;34587;48.816;9.420;2022-11-15T09:11:16;0.57;;;0.57;;
48791;SDS011;34587;48.816;9.420;2022-11-15T09:13:45;0.68;;;0.68;;
48791;SDS011;34587;48.816;9.420;2022-11-15T09:16:10;0.95;;;0.85;;
48791;SDS011;34587;48.816;9.420;2022-11-15T09:18:37;1.30;;;1.00;;
48791;SDS011;34587;48.816;9.420;2022-11-15T09:21:03;0.63;;;0.63;;
48791;SDS011;34587;48.816;9.420;2022-11-15T09:23:29;1.48;;;1.15;;
48791;SDS011;34587;48.816;9.420;2022-11-15T09:25:58;0.73;;;0.73;;
48791;SDS011;34587;48.816;9.420;2022-11-15T09:28:28;3.20;;;1.58;;
48791;SDS011;34587;48.816;9.420;2022-11-15T09:31:00;0.60;;;0.60;;
48791;SDS011;34587;48.816;9.420;2022-11-15T09:33:28;0.52;;;0.52;;
48791;SDS011;34587;48.816;9.420;2022-11-15T09:35:56;0.70;;;0.70;;
48791;SDS011;34587;48.816;9.420;2022-11-15T09:38:25;0.80;;;0.80;;
48791;SDS011;34587;48.816;9.420;2022-11-15T09:40:52;0.77;;;0.57;;
48791;SDS011;34587;48.816;9.420;2022-11-15T09:51:35;0.75;;;0.75;;
48791;SDS011;34587;48.816;9.420;2022-11-15T09:54:13;0.88;;;0.88;;
48791;SDS011;34587;48.816;9.420;2022-11-15T09:56:47;0.60;;;0.60;;
48791;SDS011;34587;48.816;9.420;2022-11-15T09:59:17;0.88;;;0.82;;
48791;SDS011;34587;48.816;9.420;2022-11-15T10:04:25;0.40;;;0.40;;
48791;SDS011;34587;48.816;9.420;2022-11-15T10:12:28;1.30;;;0.82;;
48791;SDS011;34587;48.816;9.420;2022-11-15T10:14:58;0.98;;;0.98;;
48791;SDS011;34587;48.816;9.420;2022-11-15T10:17:31;1.00;;;1.00;;
48791;SDS011;34587;48.816;9.420;2022-11-15T10:25:35;1.58;;;1.48;;
48791;SDS011;34587;48.816;9.420;2022-11-15T10:30:55;1.15;;;1.05;;
48791;SDS011;34587;48.816;9.420;2022-11-15T10:33:32;0.93;;;0.73;;
48791;SDS011;34587;48.816;9.420;2022-11-15T10:38:33;0.95;;;0.80;;
48791;SDS011;34587;48.816;9.420;2022-11-15T10:41:06;0.40;;;0.40;;
48791;SDS011;34587;48.816;9.420;2022-11-15T10:43:32;1.63;;;0.98;;
48791;SDS011;34587;48.816;9.420;2022-11-15T10:45:57;2.25;;;1.15;;
48791;SDS011;34587;48.816;9.420;2022-11-15T10:48:44;0.77;;;0.75;;
48791;SDS011;34587;48.816;9.420;2022-11-15T10:51:18;3.70;;;1.15;;
48791;SDS011;34587;48.816;9.420;2022-11-15T10:53:47;2.17;;;1.17;;
48791;SDS011;34587;48.816;9.420;2022-11-15T10:56:13;0.70;;;0.70;;
48791;SDS011;34587;48.816;9.420;2022-11-15T10:58:43;2.17;;;0.88;;
48791;SDS011;34587;48.816;9.420;2022-11-15T11:01:18;1.08;;;1.05;;
48791;SDS011;34587;48.816;9.420;2022-11-15T11:04:03;1.52;;;1.00;;
48791;SDS011;34587;48.816;9.420;2022-11-15T11:09:31;0.70;;;0.70;;
48791;SDS011;34587;48.816;9.420;2022-11-15T11:11:57;0.82;;;0.82;;
48791;SDS011;34587;48.816;9.420;2022-11-15T11:14:27;0.70;;;0.70;;
48791;SDS011;34587;48.816;9.420;2022-11-15T11:16:59;0.98;;;0.90;;
48791;SDS011;34587;48.816;9.420;2022-11-15T11:22:26;0.50;;;0.50;;
48791;SDS011;34587;48.816;9.420;2022-11-15T11:25:03;0.70;;;0.70;;
48791;SDS011;34587;48.816;9.420;2022-11-15T11:27:40;1.98;;;0.93;;
48791;SDS011;34587;48.816;9.420;2022-11-15T11:35:39;1.38;;;1.05;;
48791;SDS011;34587;48.816;9.420;2022-11-15T11:40:36;0.50;;;0.50;;
48791;SDS011;34587;48.816;9.420;2022-11-15T11:43:13;3.83;;;0.95;;
48791;SDS011;34587;48.816;9.420;2022-11-15T11:51:55;0.60;;;0.60;;
48791;SDS011;34587;48.816;9.420;2022-11-15T11:54:43;2.28;;;0.68;;
48791;SDS011;34587;48.816;9.420;2022-11-15T11:57:29;0.70;;;0.70;;
48791;SDS011;34587;48.816;9.420;2022-11-15T12:00:12;0.75;;;0.75;;
48791;SDS011;34587;48.816;9.420;2022-11-15T12:02:43;0.70;;;0.70;;
48791;SDS011;34587;48.816;9.420;2022-11-15T12:05:35;0.73;;;0.73;;
48791;SDS011;34587;48.816;9.420;2022-11-15T12:08:09;1.08;;;0.85;;
48791;SDS011;34587;48.816;9.420;2022-11-15T12:10:53;0.45;;;0.40;;
48791;SDS011;34587;48.816;9.420;2022-11-15T12:13:25;1.00;;;1.00;;
48791;SDS011;34587;48.816;9.420;2022-11-15T12:16:14;0.63;;;0.63;;
48791;SDS011;34587;48.816;9.420;2022-11-15T12:24:21;1.63;;;0.77;;
48791;SDS011;34587;48.816;9.420;2022-11-15T12:26:57;2.72;;;0.98;;
48791;SDS011;34587;48.816;9.420;2022-11-15T12:29:33;0.43;;;0.40;;
48791;SDS011;34587;48.816;9.420;2022-11-15T12:32:03;0.85;;;0.85;;
48791;SDS011;34587;48.816;9.420;2022-11-15T12:34:38;0.45;;;0.45;;
48791;SDS011;34587;48.816;9.420;2022-11-15T12:40:20;1.13;;;0.82;;
48791;SDS011;34587;48.816;9.420;2022-11-15T12:43:01;0.45;;;0.45;;
48791;SDS011;34587;48.816;9.420;2022-11-15T12:48:44;1.10;;;1.10;;
48791;SDS011;34587;48.816;9.420;2022-11-15T12:58:41;1.63;;;0.93;;
48791;SDS011;34587;48.816;9.420;2022-11-15T13:01:08;3.33;;;1.05;;
48791;SDS011;34587;48.816;9.420;2022-11-15T13:03:34;2.08;;;1.27;;
48791;SDS011;34587;48.816;9.420;2022-11-15T13:06:00;2.28;;;1.33;;
48791;SDS011;34587;48.816;9.420;2022-11-15T13:08:35;2.15;;;1.02;;
48791;SDS011;34587;48.816;9.420;2022-11-15T13:11:41;7.45;;;1.30;;
48791;SDS011;34587;48.816;9.420;2022-11-15T13:14:37;0.60;;;0.60;;
48791;SDS011;34587;48.816;9.420;2022-11-15T13:20:16;0.90;;;0.90;;
48791;SDS011;34587;48.816;9.420;2022-11-15T13:28:24;1.02;;;0.82;;
48791;SDS011;34587;48.816;9.420;2022-11-15T13:34:01;0.90;;;0.60;;
48791;SDS011;34587;48.816;9.420;2022-11-15T13:36:38;1.15;;;0.93;;
48791;SDS011;34587;48.816;9.420;2022-11-15T13:39:04;0.60;;;0.60;;
48791;SDS011;34587;48.816;9.420;2022-11-15T13:41:49;2.90;;;0.77;;
48791;SDS011;34587;48.816;9.420;2022-11-15T13:44:20;0.65;;;0.65;;
48791;SDS011;34587;48.816;9.420;2022-11-15T13:49:32;0.77;;;0.77;;
48791;SDS011;34587;48.816;9.420;2022-11-15T13:51:59;1.05;;;0.90;;
48791;SDS011;34587;48.816;9.420;2022-11-15T13:54:28;1.17;;;1.05;;
48791;SDS011;34587;48.816;9.420;2022-11-15T13:59:28;0.63;;;0.63;;
48791;SDS011;34587;48.816;9.420;2022-11-15T14:02:03;4.88;;;0.95;;
48791;SDS011;34587;48.816;9.420;2022-11-15T14:04:37;0.80;;;0.80;;
48791;SDS011;34587;48.816;9.420;2022-11-15T14:07:14;0.75;;;0.75;;
48791;SDS011;34587;48.816;9.420;2022-11-15T14:09:44;0.77;;;0.77;;
48791;SDS011;34587;48.816;9.420;2022-11-15T14:15:25;0.63;;;0.63;;
48791;SDS011;34587;48.816;9.420;2022-11-15T14:17:54;1.75;;;1.08;;
48791;SDS011;34587;48.816;9.420;2022-11-15T14:20:30;1.75;;;0.95;;
48791;SDS011;34587;48.816;9.420;2022-11-15T14:23:04;1.40;;;1.10;;
48791;SDS011;34587;48.816;9.420;2022-11-15T14:25:54;1.00;;;0.80;;
48791;SDS011;34587;48.816;9.420;2022-11-15T14:30:49;0.70;;;0.70;;
48791;SDS011;34587;48.816;9.420;2022-11-15T14:36:01;1.70;;;0.70;;
48791;SDS011;34587;48.816;9.420;2022-11-15T14:38:37;0.65;;;0.65;;
48791;SDS011;34587;48.816;9.420;2022-11-15T14:41:03;0.68;;;0.65;;
48791;SDS011;34587;48.816;9.420;2022-11-15T14:43:28;0.85;;;0.85;;
48791;SDS011;34587;48.816;9.420;2022-11-15T14:45:53;2.08;;;0.88;;
48791;SDS011;34587;48.816;9.420;2022-11-15T14:48:19;0.77;;;0.77;;
48791;SDS011;34587;48.816;9.420;2022-11-15T14:50:44;1.17;;;1.10;;
48791;SDS011;34587;48.816;9.420;2022-11-15T14:53:11;1.38;;;0.90;;
48791;SDS011;34587;48.816;9.420;2022-11-15T14:55:38;0.57;;;0.57;;
48791;SDS011;34587;48.816;9.420;2022-11-15T14:58:04;1.15;;;0.80;;
48791;SDS011;34587;48.816;9.420;2022-11-15T15:00:32;1.57;;;1.27;;
48791;SDS011;34587;48.816;9.420;2022-11-15T15:02:58;1.13;;;1.05;;
48791;SDS011;34587;48.816;9.420;2022-11-15T15:05:42;1.65;;;0.60;;
48791;SDS011;34587;48.816;9.420;2022-11-15T15:08:09;1.02;;;0.88;;
48791;SDS011;34587;48.816;9.420;2022-11-15T15:10:36;0.73;;;0.73;;
48791;SDS011;34587;48.816;9.420;2022-11-15T15:13:04;2.67;;;1.10;;
48791;SDS011;34587;48.816;9.420;2022-11-15T15:15:37;1.58;;;1.02;;
48791;SDS011;34587;48.816;9.420;2022-11-15T15:18:03;1.52;;;1.42;;
48791;SDS011;34587;48.816;9.420;2022-11-15T15:20:30;0.70;;;0.70;;
48791;SDS011;34587;48.816;9.420;2022-11-15T15:22:58;1.42;;;1.33;;
48791;SDS011;34587;48.816;9.420;2022-11-15T15:25:26;1.67;;;1.50;;
48791;SDS011;34587;48.816;9.420;2022-11-15T15:27:53;2.47;;;1.10;;
48791;SDS011;34587;48.816;9.420;2022-11-15T15:30:19;1.33;;;1.13;;
48791;SDS011;34587;48.816;9.420;2022-11-15T15:32:46;4.15;;;1.50;;
48791;SDS011;34587;48.816;9.420;2022-11-15T15:35:12;2.40;;;1.70;;
48791;SDS011;34587;48.816;9.420;2022-11-15T15:37:38;1.30;;;1.17;;
48791;SDS011;34587;48.816;9.420;2022-11-15T15:40:10;2.40;;;0.75;;
48791;SDS011;34587;48.816;9.420;2022-11-15T15:42:38;1.25;;;1.20;;
48791;SDS011;34587;48.816;9.420;2022-11-15T15:45:03;1.20;;;1.17;;
48791;SDS011;34587;48.816;9.420;2022-11-15T15:47:29;1.73;;;1.63;;
48791;SDS011;34587;48.816;9.420;2022-11-15T15:49:54;3.13;;;2.15;;
48791;SDS011;34587;48.816;9.420;2022-11-15T15:52:19;2.90;;;1.67;;
48791;SDS011;34587;48.816;9.420;2022-11-15T15:54:45;1.67;;;1.13;;
48791;SDS011;34587;48.816;9.420;2022-11-15T15:57:13;1.15;;;0.80;;
48791;SDS011;34587;48.816;9.420;2022-11-15T15:59:39;2.80;;;1.10;;
48791;SDS011;34587;48.816;9.420;2022-11-15T16:02:04;0.80;;;0.80;;
48791;SDS011;34587;48.816;9.420;2022-11-15T16:04:30;0.70;;;0.70;;
48791;SDS011;34587;48.816;9.420;2022-11-15T16:06:59;1.50;;;1.40;;
48791;SDS011;34587;48.816;9.420;2022-11-15T16:09:25;1.20;;;1.10;;
48791;SDS011;34587;48.816;9.420;2022-11-15T16:12:09;0.80;;;0.80;;
48791;SDS011;34587;48.816;9.420;2022-11-15T16:14:34;1.55;;;1.45;;
48791;SDS011;34587;48.816;9.420;2022-11-15T16:17:00;0.90;;;0.90;;
48791;SDS011;34587;48.816;9.420;2022-11-15T16:19:26;3.20;;;2.17;;
48791;SDS011;34587;48.816;9.420;2022-11-15T16:21:51;3.60;;;2.08;;
48791;SDS011;34587;48.816;9.420;2022-11-15T16:24:20;2.10;;;1.85;;
48791;SDS011;34587;48.816;9.420;2022-11-15T16:26:46;2.25;;;0.98;;
48791;SDS011;34587;48.816;9.420;2022-11-15T16:29:13;1.60;;;1.35;;
48791;SDS011;34587;48.816;9.420;2022-11-15T16:31:39;2.22;;;1.42;;
48791;SDS011;34587;48.816;9.420;2022-11-15T16:34:04;1.73;;;1.63;;
48791;SDS011;34587;48.816;9.420;2022-11-15T16:36:32;1.35;;;1.15;;
48791;SDS011;34587;48.816;9.420;2022-11-15T16:38:59;1.83;;;1.73;;
48791;SDS011;34587;48.816;9.420;2022-11-15T16:41:24;1.88;;;1.27;;
48791;SDS011;34587;48.816;9.420;2022-11-15T16:43:50;2.40;;;1.38;;
48791;SDS011;34587;48.816;9.420;2022-11-15T16:46:17;2.05;;;1.25;;
48791;SDS011;34587;48.816;9.420;2022-11-15T16:48:44;3.78;;;2.78;;
48791;SDS011;34587;48.816;9.420;2022-11-15T16:51:09;2.80;;;2.03;;
48791;SDS011;34587;48.816;9.420;2022-11-15T16:53:35;1.13;;;0.88;;
48791;SDS011;34587;48.816;9.420;2022-11-15T16:56:00;1.23;;;1.13;;
48791;SDS011;34587;48.816;9.420;2022-11-15T16:58:26;0.82;;;0.52;;
48791;SDS011;34587;48.816;9.420;2022-11-15T17:00:52;4.30;;;1.30;;
48791;SDS011;34587;48.816;9.420;2022-11-15T17:03:19;1.38;;;1.15;;
48791;SDS011;34587;48.816;9.420;2022-11-15T17:05:44;1.55;;;1.45;;
48791;SDS011;34587;48.816;9.420;2022-11-15T17:08:10;2.35;;;1.33;;
48791;SDS011;34587;48.816;9.420;2022-11-15T17:10:37;1.10;;;0.90;;
48791;SDS011;34587;48.816;9.420;2022-11-15T17:13:04;1.80;;;1.65;;
48791;SDS011;34587;48.816;9.420;2022-11-15T17:15:29;1.40;;;1.30;;
48791;SDS011;34587;48.816;9.420;2022-11-15T17:17:55;2.28;;;1.45;;
48791;SDS011;34587;48.816;9.420;2022-11-15T17:20:22;0.80;;;0.80;;
48791;SDS011;34587;48.816;9.420;2022-11-15T17:22:49;1.40;;;1.30;;
48791;SDS011;34587;48.816;9.420;2022-11-15T17:25:14;1.42;;;1.33;;
48791;SDS011;34587;48.816;9.420;2022-11-15T17:27:40;1.80;;;1.48;;
48791;SDS011;34587;48.816;9.420;2022-11-15T17:30:06;1.10;;;1.10;;
48791;SDS011;34587;48.816;9.420;2022-11-15T17:32:34;3.30;;;1.40;;
48791;SDS011;34587;48.816;9.420;2022-11-15T17:35:00;1.67;;;1.17;;
48791;SDS011;34587;48.816;9.420;2022-11-15T17:37:25;3.92;;;1.30;;
48791;SDS011;34587;48.816;9.420;2022-11-15T17:39:50;1.15;;;1.10;;
48791;SDS011;34587;48.816;9.420;2022-11-15T17:42:15;1.08;;;1.00;;
48791;SDS011;34587;48.816;9.420;2022-11-15T17:44:41;3.50;;;1.38;;
48791;SDS011;34587;48.816;9.420;2022-11-15T17:47:06;1.20;;;1.20;;
48791;SDS011;34587;48.816;9.420;2022-11-15T17:49:32;0.82;;;0.82;;
48791;SDS011;34587;48.816;9.420;2022-11-15T17:54:27;1.00;;;0.80;;
48791;SDS011;34587;48.816;9.420;2022-11-15T17:56:52;0.93;;;0.93;;
48791;SDS011;34587;48.816;9.420;2022-11-15T17:59:17;1.80;;;1.70;;
48791;SDS011;34587;48.816;9.420;2022-11-15T18:01:43;1.30;;;1.20;;
48791;SDS011;34587;48.816;9.420;2022-11-15T18:04:08;1.58;;;1.48;;
48791;SDS011;34587;48.816;9.420;2022-11-15T18:06:34;2.40;;;1.73;;
48791;SDS011;34587;48.816;9.420;2022-11-15T18:09:00;1.55;;;1.13;;
48791;SDS011;34587;48.816;9.420;2022-11-15T18:11:37;3.13;;;2.45;;
48791;SDS011;34587;48.816;9.420;2022-11-15T18:14:05;3.53;;;1.83;;
48791;SDS011;34587;48.816;9.420;2022-11-15T18:16:33;2.33;;;2.13;;
48791;SDS011;34587;48.816;9.420;2022-11-15T18:19:00;11.75;;;2.42;;
48791;SDS011;34587;48.816;9.420;2022-11-15T18:21:27;7.43;;;1.20;;
48791;SDS011;34587;48.816;9.420;2022-11-15T18:23:57;3.97;;;1.67;;
48791;SDS011;34587;48.816;9.420;2022-11-15T18:26:25;2.15;;;1.98;;
48791;SDS011;34587;48.816;9.420;2022-11-15T18:28:52;4.28;;;2.78;;
48791;SDS011;34587;48.816;9.420;2022-11-15T18:31:23;5.15;;;2.38;;
48791;SDS011;34587;48.816;9.420;2022-11-15T18:33:50;2.25;;;1.88;;
48791;SDS011;34587;48.816;9.420;2022-11-15T18:36:17;1.40;;;1.35;;
48791;SDS011;34587;48.816;9.420;2022-11-15T18:38:44;4.25;;;2.15;;
48791;SDS011;34587;48.816;9.420;2022-11-15T18:41:11;2.25;;;2.05;;
48791;SDS011;34587;48.816;9.420;2022-11-15T18:43:39;4.93;;;2.37;;
48791;SDS011;34587;48.816;9.420;2022-11-15T18:46:08;1.35;;;1.25;;
48791;SDS011;34587;48.816;9.420;2022-11-15T18:48:36;4.60;;;1.73;;
48791;SDS011;34587;48.816;9.420;2022-11-15T18:51:04;3.00;;;2.28;;
48791;SDS011;34587;48.816;9.420;2022-11-15T18:53:35;6.57;;;2.17;;
48791;SDS011;34587;48.816;9.420;2022-11-15T18:56:11;2.45;;;1.58;;
48791;SDS011;34587;48.816;9.420;2022-11-15T18:58:38;2.08;;;1.83;;
48791;SDS011;34587;48.816;9.420;2022-11-15T19:01:16;3.90;;;2.05;;
48791;SDS011;34587;48.816;9.420;2022-11-15T19:03:47;1.58;;;1.25;;
48791;SDS011;34587;48.816;9.420;2022-11-15T19:06:16;4.60;;;2.83;;
48791;SDS011;34587;48.816;9.420;2022-11-15T19:08:42;7.32;;;2.47;;
48791;SDS011;34587;48.816;9.420;2022-11-15T19:11:12;5.03;;;2.95;;
48791;SDS011;34587;48.816;9.420;2022-11-15T19:13:39;2.22;;;2.03;;
48791;SDS011;34587;48.816;9.420;2022-11-15T19:16:06;3.38;;;2.53;;
48791;SDS011;34587;48.816;9.420;2022-11-15T19:18:32;4.57;;;3.05;;
48791;SDS011;34587;48.816;9.420;2022-11-15T19:21:15;3.10;;;1.70;;
48791;SDS011;34587;48.816;9.420;2022-11-15T19:23:41;2.00;;;1.65;;
48791;SDS011;34587;48.816;9.420;2022-11-15T19:26:09;1.83;;;1.27;;
48791;SDS011;34587;48.816;9.420;2022-11-15T19:28:36;2.38;;;2.17;;
48791;SDS011;34587;48.816;9.420;2022-11-15T19:31:05;1.83;;;1.73;;
48791;SDS011;34587;48.816;9.420;2022-11-15T19:33:39;1.60;;;1.48;;
48791;SDS011;34587;48.816;9.420;2022-11-15T19:36:06;2.63;;;1.90;;
48791;SDS011;34587;48.816;9.420;2022-11-15T19:38:34;2.40;;;2.13;;
48791;SDS011;34587;48.816;9.420;2022-11-15T19:41:00;2.78;;;2.28;;
48791;SDS011;34587;48.816;9.420;2022-11-15T19:43:27;1.90;;;1.80;;
48791;SDS011;34587;48.816;9.420;2022-11-15T19:45:56;1.55;;;1.45;;
48791;SDS011;34587;48.816;9.420;2022-11-15T19:48:26;1.65;;;1.55;;
48791;SDS011;34587;48.816;9.420;2022-11-15T19:50:53;1.67;;;1.55;;
48791;SDS011;34587;48.816;9.420;2022-11-15T19:53:19;2.33;;;2.13;;
48791;SDS011;34587;48.816;9.420;2022-11-15T19:55:58;2.50;;;2.17;;
48791;SDS011;34587;48.816;9.420;2022-11-15T19:58:25;1.98;;;1.73;;
48791;SDS011;34587;48.816;9.420;2022-11-15T20:00:56;3.25;;;1.90;;
48791;SDS011;34587;48.816;9.420;2022-11-15T20:03:24;1.90;;;1.48;;
48791;SDS011;34587;48.816;9.420;2022-11-15T20:05:49;2.40;;;1.75;;
48791;SDS011;34587;48.816;9.420;2022-11-15T20:08:14;1.52;;;1.10;;
48791;SDS011;34587;48.816;9.420;2022-11-15T20:10:39;2.45;;;2.17;;
48791;SDS011;34587;48.816;9.420;2022-11-15T20:13:07;1.35;;;1.30;;
48791;SDS011;34587;48.816;9.420;2022-11-15T20:15:33;1.40;;;1.33;;
48791;SDS011;34587;48.816;9.420;2022-11-15T20:17:58;2.15;;;1.63;;
48791;SDS011;34587;48.816;9.420;2022-11-15T20:20:23;1.05;;;1.02;;
48791;SDS011;34587;48.816;9.420;2022-11-15T20:22:48;1.33;;;1.23;;
48791;SDS011;34587;48.816;9.420;2022-11-15T20:25:14;1.63;;;1.52;;
48791;SDS011;34587;48.816;9.420;2022-11-15T20:27:39;1.80;;;1.70;;
48791;SDS011;34587;48.816;9.420;2022-11-15T20:30:05;2.40;;;1.20;;
48791;SDS011;34587;48.816;9.420;2022-11-15T20:32:30;2.20;;;1.92;;
48791;SDS011;34587;48.816;9.420;2022-11-15T20:34:56;1.85;;;1.00;;
48791;SDS011;34587;48.816;9.420;2022-11-15T20:37:21;2.15;;;1.25;;
48791;SDS011;34587;48.816;9.420;2022-11-15T20:39:46;2.80;;;2.20;;
48791;SDS011;34587;48.816;9.420;2022-11-15T20:42:12;2.83;;;1.77;;
48791;SDS011;34587;48.816;9.420;2022-11-15T20:44:37;4.25;;;2.00;;
48791;SDS011;34587;48.816;9.420;2022-11-15T20:47:02;2.00;;;1.80;;
48791;SDS011;34587;48.816;9.420;2022-11-15T20:49:28;1.77;;;1.67;;